Wellsville, Colorado
Current Conditions -  °F | °C
As of 7:15 AM on Friday 28 Nov 2014 (Local Time) from KANK Reporting Station
Clear Clear  
Wind Chill: 41°   Ceiling: Unl
Heat Index: 47°   Visibility: 10mi
Dew Point:   Wind: 15mph
Humidity: 18%   Direction: 220°SW
Pressure: 30.22"   Gusts: 21mph
Location:  38.5561°N, 106.066°W
Report Text: KANK 281415Z AUTO 22013G18KT 10SM CLR 09/M14 A3022 RMK AO1 T00861144
Loading
Personal Weather Stations






























Interactive Weather Map New forecast layout! Learn more

10-Day Weather Forecast

Advertisements
Track Severe Weather on mobile